Time;durP1;ratioP1;P1;durP2;ratioP2;P2;SDS_P1;SDS_P2;PMS_P1;PMS_P2;Temp;Humidity;BMP_temperature;BMP_pressure;BME280_temperature;BME280_humidity;BME280_pressure;Samples;Min_cycle;Max_cycle;Signal;HPM_P1;HPM_P2
2022/11/29 00:01:19;;;;;;;24.00;12.77;;;6.10;99.90;;;;;;5080008;28;20023;-66
2022/11/29 00:03:47;;;;;;;26.35;12.13;;;6.10;99.90;;;;;;5098038;28;20057;-66
2022/11/29 00:06:17;;;;;;;23.08;11.55;;;6.10;99.90;;;;;;5098409;28;20024;-66
2022/11/29 00:08:44;;;;;;;24.20;12.27;;;6.10;99.90;;;;;;5098446;28;20103;-66
2022/11/29 00:14:08;;;;;;;22.33;10.93;;;6.10;99.90;;;;;;5098436;28;20145;-66
2022/11/29 00:16:35;;;;;;;22.00;10.75;;;6.10;99.90;;;;;;5097527;28;20028;-66
2022/11/29 00:19:03;;;;;;;21.77;10.43;;;6.10;99.90;;;;;;5079659;28;20024;-66
2022/11/29 00:21:30;;;;;;;18.65;10.30;;;6.10;99.90;;;;;;5097599;28;20027;-66
2022/11/29 00:23:57;;;;;;;21.25;12.18;;;6.10;99.90;;;;;;5079536;28;20016;-66
2022/11/29 00:26:24;;;;;;;20.88;10.63;;;6.10;99.90;;;;;;5079415;28;20024;-66
2022/11/29 00:28:52;;;;;;;23.52;11.10;;;6.10;99.90;;;;;;5079475;28;20019;-66
2022/11/29 00:31:22;;;;;;;21.30;11.05;;;6.10;99.90;;;;;;5079342;28;20051;-66
2022/11/29 00:33:50;;;;;;;20.92;10.70;;;6.10;99.90;;;;;;5097295;28;20052;-66
2022/11/29 00:36:18;;;;;;;20.48;11.45;;;6.10;99.90;;;;;;5097231;28;20024;-66
2022/11/29 00:38:45;;;;;;;19.60;9.85;;;6.10;99.90;;;;;;5097958;28;20345;-66
2022/11/29 00:41:13;;;;;;;23.30;11.60;;;6.10;99.90;;;;;;5097192;28;20107;-66
2022/11/29 00:43:40;;;;;;;20.02;10.57;;;6.10;99.90;;;;;;5097220;28;20058;-66
2022/11/29 00:46:08;;;;;;;19.63;11.32;;;6.10;99.90;;;;;;5097719;28;20051;-66
2022/11/29 00:48:37;;;;;;;20.98;11.77;;;6.10;99.90;;;;;;5097813;28;20086;-66
2022/11/29 00:51:05;;;;;;;21.50;11.70;;;6.10;99.90;;;;;;5096105;28;20065;-66
2022/11/29 00:53:34;;;;;;;23.55;11.68;;;6.10;99.90;;;;;;5097330;28;20027;-66
2022/11/29 00:56:03;;;;;;;20.45;11.00;;;6.10;99.90;;;;;;5078998;28;20036;-66
2022/11/29 00:58:31;;;;;;;23.58;11.82;;;6.10;99.90;;;;;;5096931;28;20036;-66
2022/11/29 01:00:58;;;;;;;23.60;11.82;;;6.10;99.90;;;;;;5079030;28;20023;-66
2022/11/29 01:03:26;;;;;;;21.88;11.88;;;6.10;99.90;;;;;;5078980;28;20408;-66
2022/11/29 01:06:00;;;;;;;18.10;10.63;;;6.10;99.90;;;;;;5096782;28;20024;-66
2022/11/29 01:08:27;;;;;;;22.27;11.55;;;6.10;99.90;;;;;;5097004;28;20047;-66
2022/11/29 01:11:15;;;;;;;22.02;12.40;;;6.10;99.90;;;;;;5097089;28;20123;-66
2022/11/29 01:13:44;;;;;;;21.63;10.80;;;6.10;99.90;;;;;;5078840;28;20024;-66
2022/11/29 01:16:14;;;;;;;22.27;11.32;;;6.10;99.90;;;;;;5096693;28;20027;-66
2022/11/29 01:18:42;;;;;;;21.33;11.32;;;6.10;99.90;;;;;;5097086;28;20046;-66
2022/11/29 01:21:15;;;;;;;23.30;11.25;;;6.10;99.90;;;;;;5096682;28;20031;-66
2022/11/29 01:23:43;;;;;;;22.88;12.48;;;6.10;99.90;;;;;;5096731;28;20028;-66
2022/11/29 01:26:13;;;;;;;22.42;11.07;;;6.10;99.90;;;;;;5096596;28;20028;-66
2022/11/29 01:28:41;;;;;;;21.50;10.35;;;6.10;99.90;;;;;;5097304;28;20062;-66
2022/11/29 01:31:11;;;;;;;21.00;11.38;;;6.10;99.90;;;;;;5096590;28;20357;-66
2022/11/29 01:33:39;;;;;;;19.65;10.23;;;6.10;99.90;;;;;;5097147;28;20024;-66
2022/11/29 01:36:07;;;;;;;21.95;11.27;;;6.10;99.90;;;;;;5096994;28;20099;-66
2022/11/29 01:38:35;;;;;;;21.30;10.50;;;6.10;99.90;;;;;;5097067;28;20016;-66
2022/11/29 01:41:07;;;;;;;21.88;11.18;;;6.10;99.90;;;;;;5096481;28;20020;-66
2022/11/29 01:43:53;;;;;;;24.40;11.77;;;6.10;99.90;;;;;;5097013;28;20016;-66
2022/11/29 01:46:21;;;;;;;24.08;12.02;;;6.10;99.90;;;;;;5097018;28;20051;-66
2022/11/29 01:48:50;;;;;;;22.95;12.07;;;6.10;99.90;;;;;;5096903;28;20024;-66
2022/11/29 01:51:18;;;;;;;24.30;11.93;;;6.00;99.90;;;;;;5096694;28;20059;-66
2022/11/29 01:53:45;;;;;;;22.60;11.15;;;6.10;99.90;;;;;;5062120;28;20115;-66
2022/11/29 01:56:14;;;;;;;21.17;11.50;;;6.10;99.90;;;;;;5096256;28;20039;-66
2022/11/29 01:58:43;;;;;;;21.77;11.52;;;6.10;99.90;;;;;;5096639;28;20040;-66
2022/11/29 02:01:10;;;;;;;23.55;12.77;;;6.00;99.90;;;;;;5096309;28;20016;-66
2022/11/29 02:03:38;;;;;;;25.83;12.00;;;6.10;99.90;;;;;;5099883;28;20016;-66
2022/11/29 02:06:06;;;;;;;22.38;11.20;;;6.00;99.90;;;;;;5100788;28;20046;-66
2022/11/29 02:08:40;;;;;;;22.70;10.85;;;6.00;99.90;;;;;;5100800;28;20419;-66
2022/11/29 02:11:18;;;;;;;24.92;12.23;;;6.00;99.90;;;;;;5082129;28;20027;-66
2022/11/29 02:14:15;;;;;;;22.42;11.27;;;6.00;99.90;;;;;;5082229;28;20028;-66
2022/11/29 02:16:51;;;;;;;24.48;12.10;;;6.00;99.90;;;;;;5081950;28;20317;-66
2022/11/29 02:19:42;;;;;;;22.52;11.77;;;6.00;99.90;;;;;;5100365;28;20066;-66
2022/11/29 02:22:19;;;;;;;23.20;12.75;;;6.00;99.90;;;;;;5100524;28;20088;-66
2022/11/29 02:25:04;;;;;;;24.95;12.20;;;6.00;99.90;;;;;;5100559;28;20043;-66
2022/11/29 02:28:14;;;;;;;24.35;12.45;;;6.00;99.90;;;;;;5100370;28;20024;-66
2022/11/29 02:30:48;;;;;;;24.58;12.65;;;6.00;99.90;;;;;;5100058;28;20020;-66
2022/11/29 02:33:37;;;;;;;28.10;13.25;;;6.00;99.90;;;;;;5100658;28;20040;-66
2022/11/29 02:36:05;;;;;;;25.17;11.77;;;6.00;99.90;;;;;;5100154;28;20372;-66
2022/11/29 02:38:39;;;;;;;25.33;11.88;;;6.00;99.90;;;;;;5100270;28;20048;-66
2022/11/29 02:41:27;;;;;;;21.48;12.02;;;6.00;99.90;;;;;;5099547;28;20431;-66
2022/11/29 02:44:16;;;;;;;25.15;12.20;;;6.00;99.90;;;;;;5100237;28;20020;-66
2022/11/29 02:47:09;;;;;;;26.13;12.85;;;6.00;99.90;;;;;;5100008;28;20095;-66
2022/11/29 02:49:36;;;;;;;26.15;13.90;;;6.00;99.90;;;;;;5099548;28;20023;-66
2022/11/29 02:52:41;;;;;;;28.63;12.98;;;6.00;99.90;;;;;;5081396;28;20028;-66
2022/11/29 02:55:34;;;;;;;23.08;12.60;;;6.00;99.90;;;;;;5096816;28;20120;-66
2022/11/29 02:58:15;;;;;;;26.02;13.07;;;5.90;99.90;;;;;;5099163;28;20454;-66
2022/11/29 03:01:14;;;;;;;28.45;13.23;;;5.90;99.90;;;;;;5079485;28;20037;-66
2022/11/29 03:03:55;;;;;;;26.10;12.23;;;5.90;99.90;;;;;;5048404;28;20041;-66
2022/11/29 03:06:44;;;;;;;31.35;14.60;;;5.90;99.90;;;;;;5078855;28;20025;-66
2022/11/29 03:09:29;;;;;;;30.17;13.85;;;5.90;99.90;;;;;;5079342;28;20042;-66
2022/11/29 03:12:28;;;;;;;23.67;11.65;;;5.90;99.90;;;;;;5079275;28;20020;-66
2022/11/29 03:15:13;;;;;;;25.40;12.75;;;5.90;99.90;;;;;;5077932;28;20024;-66
2022/11/29 03:17:59;;;;;;;27.23;13.48;;;5.90;99.90;;;;;;5079265;28;20021;-66
2022/11/29 03:20:51;;;;;;;24.48;12.50;;;5.90;99.90;;;;;;5078594;28;20032;-66
2022/11/29 03:23:32;;;;;;;23.88;11.95;;;5.90;99.90;;;;;;5078542;28;20025;-66
2022/11/29 03:26:14;;;;;;;27.15;12.82;;;5.80;99.90;;;;;;5079017;28;20127;-66
2022/11/29 03:29:19;;;;;;;27.48;13.35;;;5.90;99.90;;;;;;5060639;28;20442;-66
2022/11/29 03:32:10;;;;;;;31.92;14.63;;;5.80;99.90;;;;;;5055630;28;20432;-66
2022/11/29 03:34:49;;;;;;;29.60;16.17;;;5.80;99.90;;;;;;5060397;28;20021;-66
2022/11/29 03:37:29;;;;;;;48.85;22.23;;;5.80;99.90;;;;;;5060529;28;20025;-66
2022/11/29 03:40:07;;;;;;;28.70;15.07;;;5.80;99.90;;;;;;5078351;28;20023;-66
2022/11/29 03:42:51;;;;;;;25.15;13.10;;;5.80;99.90;;;;;;5078711;28;20027;-66
2022/11/29 03:45:32;;;;;;;23.73;12.52;;;5.80;99.90;;;;;;5060346;28;20025;-66
2022/11/29 03:48:18;;;;;;;28.35;15.23;;;5.80;99.90;;;;;;5078186;28;20059;-66
2022/11/29 03:51:03;;;;;;;34.20;15.63;;;5.80;99.90;;;;;;5060149;28;20055;-66
2022/11/29 03:54:01;;;;;;;35.90;16.42;;;5.80;99.90;;;;;;5078205;28;20025;-66
2022/11/29 03:56:37;;;;;;;29.48;15.25;;;5.80;99.90;;;;;;5077794;28;20021;-66
2022/11/29 03:59:14;;;;;;;26.75;13.10;;;5.80;99.90;;;;;;5086148;28;20044;-66
2022/11/29 04:02:03;;;;;;;29.38;13.73;;;5.80;99.90;;;;;;5098574;28;20100;-66
2022/11/29 04:04:40;;;;;;;26.00;13.18;;;5.80;99.90;;;;;;5098182;28;20016;-66
2022/11/29 04:07:25;;;;;;;26.83;12.63;;;5.80;99.90;;;;;;5079898;28;20024;-66
2022/11/29 04:09:56;;;;;;;29.52;13.55;;;5.90;99.90;;;;;;5098606;28;20034;-66
2022/11/29 04:12:38;;;;;;;25.73;13.10;;;5.80;99.90;;;;;;5079785;28;20077;-66
2022/11/29 04:15:53;;;;;;;28.85;12.90;;;5.80;99.90;;;;;;5097673;28;20032;-66
2022/11/29 04:19:00;;;;;;;23.90;12.55;;;5.80;99.90;;;;;;5098051;28;20073;-66
2022/11/29 04:22:03;;;;;;;29.70;12.60;;;5.80;99.90;;;;;;5074051;28;20040;-66
2022/11/29 04:24:56;;;;;;;31.83;13.85;;;5.80;99.90;;;;;;5097598;28;20442;-66
2022/11/29 04:27:50;;;;;;;27.02;13.07;;;5.80;99.90;;;;;;5097501;28;20052;-66
2022/11/29 04:30:21;;;;;;;25.85;13.43;;;5.90;99.90;;;;;;5097508;28;20018;-66
2022/11/29 04:33:25;;;;;;;29.75;13.88;;;5.80;99.90;;;;;;5098039;28;20412;-66
2022/11/29 04:36:10;;;;;;;24.27;12.23;;;5.80;99.90;;;;;;5079202;28;20051;-66
2022/11/29 04:38:59;;;;;;;32.80;13.90;;;5.80;99.90;;;;;;5097858;28;20020;-66
2022/11/29 04:41:48;;;;;;;27.52;13.05;;;5.80;99.90;;;;;;5079239;28;20097;-66
2022/11/29 04:44:53;;;;;;;29.08;14.20;;;5.90;99.90;;;;;;5097430;28;20434;-66
2022/11/29 04:47:41;;;;;;;28.52;13.75;;;5.80;99.90;;;;;;5097631;28;20028;-66
2022/11/29 04:50:12;;;;;;;32.35;13.27;;;5.90;99.90;;;;;;5097574;28;20054;-66
2022/11/29 04:52:53;;;;;;;26.40;12.80;;;5.90;99.90;;;;;;5097314;28;20020;-66
2022/11/29 04:55:37;;;;;;;31.98;13.50;;;5.90;99.90;;;;;;5097496;28;20020;-66
2022/11/29 04:58:21;;;;;;;25.70;14.30;;;5.90;99.90;;;;;;5096988;28;20103;-66
2022/11/29 05:01:39;;;;;;;31.50;14.18;;;5.90;99.90;;;;;;5058957;28;20036;-66
2022/11/29 05:04:36;;;;;;;27.23;12.93;;;5.90;99.90;;;;;;5042042;28;20029;-66
2022/11/29 05:07:22;;;;;;;28.67;14.10;;;5.90;99.90;;;;;;5040621;28;20025;-67
2022/11/29 05:10:28;;;;;;;28.45;13.68;;;5.90;99.90;;;;;;5076899;28;20013;-66
2022/11/29 05:13:11;;;;;;;28.73;12.30;;;5.90;99.90;;;;;;5077283;28;20025;-66
2022/11/29 05:16:19;;;;;;;42.10;14.27;;;5.90;99.90;;;;;;5077006;28;20044;-66
2022/11/29 05:18:58;;;;;;;26.92;13.40;;;5.90;99.90;;;;;;5076620;28;20043;-66
2022/11/29 05:21:41;;;;;;;30.52;13.80;;;5.90;99.90;;;;;;5076812;28;20032;-66
2022/11/29 05:24:17;;;;;;;26.83;13.00;;;5.90;99.90;;;;;;5077001;28;20017;-66
2022/11/29 05:27:10;;;;;;;29.58;13.30;;;5.90;99.90;;;;;;5076865;28;20020;-66
2022/11/29 05:30:19;;;;;;;31.85;13.70;;;5.90;99.90;;;;;;5076558;28;20035;-66
2022/11/29 05:32:56;;;;;;;29.80;13.20;;;5.90;99.90;;;;;;5068278;28;20115;-66
2022/11/29 05:35:44;;;;;;;32.17;14.32;;;5.90;99.90;;;;;;5076249;28;20035;-66
2022/11/29 05:38:44;;;;;;;29.67;12.82;;;5.90;99.90;;;;;;5078767;28;20409;-66
2022/11/29 05:41:20;;;;;;;30.52;14.20;;;5.90;99.90;;;;;;5080651;28;20048;-66
2022/11/29 05:44:17;;;;;;;32.70;14.75;;;5.90;99.90;;;;;;5081015;28;20097;-66
2022/11/29 05:47:00;;;;;;;28.00;13.02;;;5.90;99.90;;;;;;5080572;28;20107;-66
2022/11/29 05:50:00;;;;;;;30.98;13.35;;;5.90;99.90;;;;;;5080761;28;20424;-66
2022/11/29 05:52:43;;;;;;;29.10;14.50;;;5.90;99.90;;;;;;5080757;28;20051;-66
2022/11/29 05:55:14;;;;;;;30.98;13.63;;;5.90;99.90;;;;;;5080603;28;20344;-66
2022/11/29 05:58:02;;;;;;;32.83;15.35;;;5.90;99.90;;;;;;5080653;28;20070;-66
2022/11/29 06:00:53;;;;;;;31.88;13.70;;;5.90;99.90;;;;;;5099897;28;20044;-66
2022/11/29 06:03:44;;;;;;;37.90;15.07;;;5.90;99.90;;;;;;5100578;28;20419;-66
2022/11/29 06:06:26;;;;;;;27.98;13.57;;;5.90;99.90;;;;;;5100469;28;20078;-66
2022/11/29 06:09:05;;;;;;;33.67;13.43;;;5.90;99.90;;;;;;5082409;28;20145;-66
2022/11/29 06:11:42;;;;;;;36.92;15.48;;;5.90;99.90;;;;;;5100119;28;20442;-66
2022/11/29 06:14:28;;;;;;;44.47;18.85;;;5.90;99.90;;;;;;5100078;28;20108;-66
2022/11/29 06:17:24;;;;;;;43.60;16.83;;;5.90;99.90;;;;;;5100002;28;20473;-66
2022/11/29 06:20:18;;;;;;;30.00;14.07;;;5.90;99.90;;;;;;5099904;28;20020;-66
2022/11/29 06:23:15;;;;;;;35.63;14.90;;;5.90;99.90;;;;;;5076412;28;20367;-66
2022/11/29 06:26:02;;;;;;;37.80;15.45;;;5.90;99.90;;;;;;5100181;28;20094;-66
2022/11/29 06:28:43;;;;;;;33.15;14.82;;;5.80;99.90;;;;;;5100846;28;20116;-66
2022/11/29 06:31:37;;;;;;;36.55;14.18;;;5.90;99.90;;;;;;5100373;28;20020;-66
2022/11/29 06:34:28;;;;;;;29.75;13.50;;;5.80;99.90;;;;;;5099713;28;20024;-66
2022/11/29 06:37:10;;;;;;;31.52;13.68;;;5.80;99.90;;;;;;5099621;28;20412;-66
2022/11/29 06:39:38;;;;;;;35.33;14.10;;;5.90;99.90;;;;;;5100109;28;20016;-66
2022/11/29 06:42:05;;;;;;;30.13;13.55;;;5.90;99.90;;;;;;5100078;28;20350;-66
2022/11/29 06:44:33;;;;;;;31.23;13.20;;;5.80;99.90;;;;;;5099337;28;20138;-66
2022/11/29 06:47:38;;;;;;;28.52;13.32;;;5.90;99.90;;;;;;5100001;28;20016;-66
2022/11/29 06:50:31;;;;;;;32.08;14.55;;;5.90;99.90;;;;;;5090046;28;20044;-66
2022/11/29 06:53:08;;;;;;;33.97;14.13;;;5.90;99.90;;;;;;5099957;28;20020;-66
2022/11/29 06:55:53;;;;;;;30.67;14.05;;;5.90;99.90;;;;;;5099768;28;20103;-66
2022/11/29 06:58:51;;;;;;;32.17;13.77;;;5.90;99.90;;;;;;5099190;28;20046;-66
2022/11/29 07:01:28;;;;;;;30.42;13.85;;;5.90;99.90;;;;;;5099499;28;20028;-66
2022/11/29 07:04:20;;;;;;;25.27;12.30;;;5.90;99.90;;;;;;5099031;28;20044;-66
2022/11/29 07:06:48;;;;;;;30.23;13.30;;;5.90;99.90;;;;;;5099435;28;20124;-66
2022/11/29 07:09:20;;;;;;;27.73;12.70;;;5.90;99.90;;;;;;5099506;28;20023;-66
2022/11/29 07:11:48;;;;;;;29.95;13.60;;;5.90;99.90;;;;;;5099590;28;20024;-66
2022/11/29 07:14:17;;;;;;;34.30;14.10;;;5.90;99.90;;;;;;5099246;28;20032;-66
2022/11/29 07:17:25;;;;;;;28.02;13.57;;;5.90;99.90;;;;;;5098845;28;20024;-66
2022/11/29 07:20:16;;;;;;;41.15;15.05;;;5.90;99.90;;;;;;5085655;28;20435;-68
2022/11/29 07:23:13;;;;;;;29.05;13.20;;;5.90;99.90;;;;;;5099374;28;20074;-67
2022/11/29 07:26:07;;;;;;;32.90;13.52;;;5.90;99.90;;;;;;5099035;28;20020;-67
2022/11/29 07:28:46;;;;;;;29.23;12.48;;;5.90;99.90;;;;;;5080777;28;20024;-67
2022/11/29 07:31:47;;;;;;;35.95;13.73;;;5.90;99.90;;;;;;5099184;28;20020;-67
2022/11/29 07:34:51;;;;;;;27.75;12.32;;;5.90;99.90;;;;;;5098924;28;20434;-67
2022/11/29 07:37:44;;;;;;;23.95;10.98;;;6.00;99.90;;;;;;5098563;28;20077;-67
2022/11/29 07:40:29;;;;;;;27.27;11.90;;;5.90;99.90;;;;;;5081807;28;20111;-67
2022/11/29 07:43:11;;;;;;;31.90;13.63;;;5.90;99.90;;;;;;5099138;28;20020;-67
2022/11/29 07:45:39;;;;;;;27.55;11.77;;;6.00;99.90;;;;;;5098923;28;20044;-67
2022/11/29 07:48:11;;;;;;;31.83;13.27;;;6.00;99.90;;;;;;5098315;28;20016;-67
2022/11/29 07:50:40;;;;;;;35.00;13.27;;;6.00;99.90;;;;;;5098476;28;20020;-67
2022/11/29 07:53:15;;;;;;;35.00;14.02;;;6.00;99.90;;;;;;5080308;28;20028;-67
2022/11/29 07:55:43;;;;;;;32.35;13.10;;;6.00;99.90;;;;;;5098631;28;20059;-73
2022/11/29 07:58:15;;;;;;;30.60;13.68;;;6.00;99.90;;;;;;5098452;28;20021;-71
2022/11/29 08:00:43;;;;;;;27.80;12.77;;;6.00;99.90;;;;;;5098092;28;20059;-71
2022/11/29 08:03:11;;;;;;;38.53;14.75;;;6.00;99.90;;;;;;5080281;28;20032;-70
2022/11/29 08:05:39;;;;;;;29.88;12.70;;;6.10;99.90;;;;;;5097944;28;20020;-70
2022/11/29 08:08:06;;;;;;;24.80;11.80;;;6.10;99.90;;;;;;5097983;28;20020;-70
2022/11/29 08:10:34;;;;;;;31.10;13.25;;;6.10;99.90;;;;;;5098191;28;20074;-75
2022/11/29 08:13:02;;;;;;;28.45;12.57;;;6.10;99.90;;;;;;5098607;28;20023;-67
2022/11/29 08:15:30;;;;;;;32.63;14.63;;;6.10;99.90;;;;;;5097906;28;20115;-67
2022/11/29 08:17:57;;;;;;;36.25;14.77;;;6.20;99.90;;;;;;5097801;28;20412;-69
2022/11/29 08:20:24;;;;;;;33.67;13.38;;;6.20;99.90;;;;;;5098190;28;20048;-69
2022/11/29 08:22:56;;;;;;;34.33;15.75;;;6.20;99.90;;;;;;5097861;28;20016;-69
2022/11/29 08:25:25;;;;;;;30.58;13.98;;;6.30;99.90;;;;;;5098211;28;20027;-69
2022/11/29 08:27:53;;;;;;;28.27;13.05;;;6.30;99.90;;;;;;5097594;28;20467;-69
2022/11/29 08:30:23;;;;;;;29.20;12.73;;;6.30;99.90;;;;;;5098051;28;20403;-69
2022/11/29 08:32:50;;;;;;;34.42;12.90;;;6.30;99.90;;;;;;5097472;28;20032;-69
2022/11/29 08:35:20;;;;;;;29.48;13.07;;;6.30;99.90;;;;;;5097561;28;20043;-67
2022/11/29 08:37:47;;;;;;;31.50;14.05;;;6.40;99.90;;;;;;5079466;28;20419;-68
2022/11/29 08:40:16;;;;;;;40.83;16.02;;;6.40;99.90;;;;;;5097965;28;20020;-69
2022/11/29 08:42:43;;;;;;;36.08;14.98;;;6.40;99.90;;;;;;5097244;28;20051;-69
2022/11/29 08:45:10;;;;;;;32.78;13.43;;;6.40;99.90;;;;;;5097267;28;20101;-69
2022/11/29 08:47:40;;;;;;;28.70;13.38;;;6.40;99.90;;;;;;5079429;28;20063;-69
2022/11/29 08:50:13;;;;;;;34.95;15.38;;;6.50;99.90;;;;;;5097093;28;20078;-69
2022/11/29 08:55:41;;;;;;;36.35;15.23;;;6.50;99.90;;;;;;5097059;28;20116;-66
2022/11/29 08:58:11;;;;;;;30.30;13.98;;;6.50;99.90;;;;;;5097050;28;20077;-66
2022/11/29 09:00:39;;;;;;;31.17;14.40;;;6.50;99.90;;;;;;5076680;28;20119;-66
2022/11/29 09:05:53;;;;;;;34.78;14.45;;;6.60;99.90;;;;;;5076682;28;20028;-66
2022/11/29 09:08:20;;;;;;;38.28;14.23;;;6.60;99.90;;;;;;5059249;28;20035;-66
2022/11/29 09:10:48;;;;;;;30.73;13.88;;;6.60;99.90;;;;;;5077279;28;20400;-67
2022/11/29 09:13:16;;;;;;;35.22;13.50;;;6.70;99.90;;;;;;5075760;28;20432;-67
2022/11/29 09:15:44;;;;;;;32.63;15.32;;;6.70;99.90;;;;;;5076288;28;20029;-68
2022/11/29 09:18:12;;;;;;;30.52;14.93;;;6.70;99.90;;;;;;5077241;28;20312;-68
2022/11/29 09:20:42;;;;;;;31.48;14.65;;;6.70;99.90;;;;;;5076485;28;20059;-66
2022/11/29 09:23:12;;;;;;;30.25;14.00;;;6.70;99.90;;;;;;5059432;28;20025;-67
2022/11/29 09:25:39;;;;;;;46.05;14.68;;;6.80;99.90;;;;;;5076428;28;20023;-67
2022/11/29 09:28:07;;;;;;;35.33;14.23;;;6.80;99.90;;;;;;5058770;28;20328;-67
2022/11/29 09:30:36;;;;;;;38.92;14.80;;;6.80;99.90;;;;;;5058586;28;20028;-67
2022/11/29 09:33:05;;;;;;;37.75;14.93;;;6.80;99.90;;;;;;5076410;28;20032;-67
2022/11/29 09:35:33;;;;;;;37.15;13.77;;;6.80;99.90;;;;;;5076781;28;20497;-67
2022/11/29 09:38:01;;;;;;;37.67;14.75;;;6.80;99.90;;;;;;5076494;28;20052;-67
2022/11/29 09:40:39;;;;;;;38.22;15.27;;;6.90;99.90;;;;;;5058505;28;20028;-67
2022/11/29 09:43:31;;;;;;;43.58;16.30;;;6.90;99.90;;;;;;5058478;28;20035;-67
2022/11/29 09:46:23;;;;;;;43.40;15.20;;;6.90;99.90;;;;;;5076766;28;20107;-67
2022/11/29 09:49:03;;;;;;;35.90;14.45;;;6.90;99.90;;;;;;5076382;28;20036;-66
2022/11/29 09:52:07;;;;;;;33.63;16.05;;;6.90;99.90;;;;;;5058447;28;20024;-67
2022/11/29 09:54:51;;;;;;;40.92;16.25;;;6.90;99.90;;;;;;5076531;28;20028;-67
2022/11/29 09:57:22;;;;;;;32.10;14.25;;;6.90;99.90;;;;;;5076256;28;20028;-67
2022/11/29 09:59:55;;;;;;;35.28;16.08;;;7.00;99.90;;;;;;5090328;28;20068;-67
2022/11/29 10:02:47;;;;;;;37.65;15.27;;;7.00;99.90;;;;;;5096388;28;20031;-67
2022/11/29 10:05:27;;;;;;;38.95;17.02;;;7.00;99.90;;;;;;5096542;28;20101;-67
2022/11/29 10:08:08;;;;;;;50.20;20.65;;;7.10;99.90;;;;;;5078508;28;20051;-67
2022/11/29 10:10:46;;;;;;;42.70;19.77;;;7.10;99.90;;;;;;5096245;28;20317;-67
2022/11/29 10:13:25;;;;;;;45.30;18.48;;;7.10;99.90;;;;;;5096281;28;20052;-67
2022/11/29 10:16:10;;;;;;;43.80;18.63;;;7.10;99.90;;;;;;5096165;28;20020;-67
2022/11/29 10:19:00;;;;;;;52.40;19.42;;;7.10;99.90;;;;;;5096674;28;20039;-67
2022/11/29 10:21:44;;;;;;;42.30;16.63;;;7.20;99.90;;;;;;5096739;28;20020;-67
2022/11/29 10:24:21;;;;;;;37.92;15.35;;;7.20;99.90;;;;;;5098513;28;20048;-67
2022/11/29 10:26:50;;;;;;;40.58;16.83;;;7.20;99.90;;;;;;5099929;28;20024;-67
2022/11/29 10:29:18;;;;;;;42.60;16.02;;;7.20;99.90;;;;;;5100042;28;20020;-67
2022/11/29 10:31:48;;;;;;;41.88;16.05;;;7.20;99.90;;;;;;5099731;28;20024;-67
2022/11/29 10:34:25;;;;;;;51.40;18.83;;;7.20;99.90;;;;;;5100236;28;20047;-67
2022/11/29 10:37:01;;;;;;;44.47;20.10;;;7.30;99.90;;;;;;5099641;28;20028;-69
2022/11/29 10:39:38;;;;;;;40.20;16.55;;;7.30;99.90;;;;;;5100264;28;20025;-66
2022/11/29 10:45:16;;;;;;;44.15;17.05;;;7.30;99.90;;;;;;5099569;28;20046;-67
2022/11/29 10:47:47;;;;;;;43.72;17.10;;;7.30;99.90;;;;;;5100065;28;20358;-67
2022/11/29 10:50:24;;;;;;;38.83;15.20;;;7.30;99.90;;;;;;5099593;28;20043;-67
2022/11/29 10:52:54;;;;;;;43.65;16.60;;;7.30;99.90;;;;;;5099618;28;20016;-68
2022/11/29 10:55:22;;;;;;;48.78;16.23;;;7.30;99.90;;;;;;5099289;28;20439;-67
2022/11/29 10:58:25;;;;;;;35.67;16.05;;;7.30;99.90;;;;;;5099399;28;20048;-69
2022/11/29 11:01:07;;;;;;;42.83;15.73;;;7.40;99.90;;;;;;5099568;28;20064;-69
2022/11/29 11:03:38;;;;;;;40.65;16.52;;;7.40;99.90;;;;;;5099916;28;20016;-67
2022/11/29 11:06:18;;;;;;;42.47;16.92;;;7.40;99.90;;;;;;5081008;28;20024;-67
2022/11/29 11:08:54;;;;;;;37.38;16.23;;;7.40;99.90;;;;;;5099095;28;20030;-67
2022/11/29 11:11:30;;;;;;;;;;;7.40;99.90;;;;;;5099794;28;20024;-67
2022/11/29 11:14:19;;;;;;;36.50;14.27;;;7.50;99.90;;;;;;5099619;28;19904;-67
2022/11/29 11:16:47;;;;;;;33.13;14.63;;;7.50;99.90;;;;;;5099129;28;20028;-70
2022/11/29 11:19:30;;;;;;;34.85;14.20;;;7.50;99.90;;;;;;5098992;28;20062;-73
2022/11/29 11:21:59;;;;;;;38.05;15.80;;;7.50;99.90;;;;;;5098815;28;20447;-70
2022/11/29 11:24:32;;;;;;;29.60;13.70;;;7.50;99.90;;;;;;5099098;28;20028;-70
2022/11/29 11:27:00;;;;;;;33.78;13.90;;;7.50;99.90;;;;;;5098931;28;20107;-70
2022/11/29 11:29:54;;;;;;;35.03;14.95;;;7.50;99.90;;;;;;5098653;28;20428;-68
2022/11/29 11:32:21;;;;;;;27.00;13.25;;;7.60;99.90;;;;;;5096103;28;20040;-67
2022/11/29 11:34:57;;;;;;;31.40;13.25;;;7.60;99.90;;;;;;5098006;28;20424;-68
2022/11/29 11:37:29;;;;;;;29.23;13.52;;;7.60;99.90;;;;;;5099253;28;20350;-67
2022/11/29 11:40:18;;;;;;;35.67;14.88;;;7.60;99.90;;;;;;5098553;28;20316;-68
2022/11/29 11:42:46;;;;;;;27.67;13.27;;;7.60;99.90;;;;;;5098384;28;20027;-68
2022/11/29 11:45:13;;;;;;;32.85;13.77;;;7.60;99.90;;;;;;5098417;28;20085;-67
2022/11/29 11:47:48;;;;;;;21.40;10.43;;;7.70;99.90;;;;;;5100084;28;20048;-71
2022/11/29 11:50:26;;;;;;;17.10;10.40;;;7.70;99.90;;;;;;5098204;28;20024;-70
2022/11/29 11:52:59;;;;;;;18.10;7.65;;;7.70;99.90;;;;;;5098191;28;20050;-70
2022/11/29 11:55:43;;;;;;;25.60;10.70;;;7.70;99.90;;;;;;5080090;28;20328;-68
2022/11/29 11:58:14;;;;;;;21.75;10.13;;;7.70;99.90;;;;;;5098831;28;20020;-68
2022/11/29 12:00:57;;;;;;;15.88;8.00;;;7.80;99.90;;;;;;5077751;28;20032;-68
2022/11/29 12:03:28;;;;;;;17.52;8.73;;;7.80;99.90;;;;;;5078325;28;20024;-67
2022/11/29 12:06:15;;;;;;;21.38;9.38;;;7.80;99.90;;;;;;5059880;28;20024;-68
2022/11/29 12:08:44;;;;;;;24.30;9.95;;;7.80;99.90;;;;;;5077854;28;20017;-67
2022/11/29 12:11:18;;;;;;;20.98;9.80;;;7.80;99.90;;;;;;5077609;28;20028;-67
2022/11/29 12:13:55;;;;;;;19.02;9.13;;;7.80;99.90;;;;;;5077572;28;20412;-67
2022/11/29 12:16:37;;;;;;;19.38;9.32;;;7.80;99.90;;;;;;5059700;28;20036;-67
2022/11/29 12:19:28;;;;;;;15.90;8.65;;;7.80;99.90;;;;;;5077552;28;20017;-67
2022/11/29 12:22:05;;;;;;;21.40;8.68;;;7.70;99.90;;;;;;5077625;28;20055;-67
2022/11/29 12:24:44;;;;;;;21.13;8.73;;;7.70;99.90;;;;;;5077653;28;20431;-67
2022/11/29 12:27:14;;;;;;;19.85;8.88;;;7.70;99.90;;;;;;5077876;28;20360;-67
2022/11/29 12:29:41;;;;;;;21.83;10.65;;;7.70;99.90;;;;;;5077118;28;20103;-67
2022/11/29 12:32:26;;;;;;;21.20;10.38;;;7.70;99.90;;;;;;5077197;28;20100;-68
2022/11/29 12:35:04;;;;;;;42.75;20.38;;;7.70;99.90;;;;;;5059342;28;20036;-67
2022/11/29 12:37:40;;;;;;;17.60;9.45;;;7.70;99.90;;;;;;5077697;28;20016;-67
2022/11/29 12:40:33;;;;;;;21.65;11.60;;;7.70;99.90;;;;;;5077611;28;20039;-67
2022/11/29 12:43:15;;;;;;;14.52;6.82;;;7.70;99.90;;;;;;5077253;28;20344;-67
2022/11/29 12:46:00;;;;;;;18.50;8.05;;;7.60;99.90;;;;;;5077538;28;20302;-70
2022/11/29 12:48:42;;;;;;;21.02;8.20;;;7.60;99.90;;;;;;5077190;28;20036;-70
2022/11/29 12:51:27;;;;;;;24.05;9.93;;;7.60;99.90;;;;;;5077428;28;20055;-69
2022/11/29 12:54:26;;;;;;;17.52;9.43;;;7.60;99.90;;;;;;5077316;28;20024;-69
2022/11/29 12:57:23;;;;;;;29.98;13.13;;;7.50;99.90;;;;;;5077030;28;20033;-70
2022/11/29 13:00:04;;;;;;;24.10;11.98;;;7.50;99.90;;;;;;5090686;28;20094;-70
2022/11/29 13:02:39;;;;;;;24.75;10.95;;;7.60;99.90;;;;;;5097711;28;20034;-70
2022/11/29 13:05:41;;;;;;;20.02;10.10;;;7.60;99.90;;;;;;5097092;28;20016;-71
2022/11/29 13:08:20;;;;;;;22.27;10.45;;;7.60;99.90;;;;;;5078942;28;20023;-70
2022/11/29 13:11:09;;;;;;;18.05;10.68;;;7.60;99.90;;;;;;5097690;28;20066;-69
2022/11/29 13:13:44;;;;;;;23.83;9.70;;;7.60;99.90;;;;;;5097275;28;20026;-67
2022/11/29 13:16:37;;;;;;;18.13;8.88;;;7.60;99.90;;;;;;5097293;28;20028;-67
2022/11/29 13:19:17;;;;;;;18.52;8.48;;;7.60;99.90;;;;;;5096784;28;20020;-67
2022/11/29 13:21:54;;;;;;;23.17;9.90;;;7.60;99.90;;;;;;5097380;28;20095;-67
2022/11/29 13:24:40;;;;;;;27.40;9.50;;;7.60;99.90;;;;;;5097284;28;20017;-68
2022/11/29 13:27:12;;;;;;;25.47;9.70;;;7.60;99.90;;;;;;5097012;28;20362;-69
2022/11/29 13:29:39;;;;;;;24.85;10.85;;;7.60;99.90;;;;;;5097214;28;20304;-70
2022/11/29 13:32:22;;;;;;;21.85;10.18;;;7.60;99.90;;;;;;5096806;28;20024;-70
2022/11/29 13:34:52;;;;;;;21.38;9.35;;;7.60;99.90;;;;;;5097096;28;20024;-72
2022/11/29 13:37:38;;;;;;;21.58;9.68;;;7.50;99.90;;;;;;5097235;28;20028;-70
2022/11/29 13:40:33;;;;;;;22.98;10.18;;;7.60;99.90;;;;;;5096849;28;20020;-71
2022/11/29 13:43:22;;;;;;;27.73;9.70;;;7.60;99.90;;;;;;5096985;28;20040;-71
2022/11/29 13:46:24;;;;;;;23.88;10.32;;;7.50;99.90;;;;;;5096827;28;20028;-72
2022/11/29 13:48:53;;;;;;;26.27;9.90;;;7.60;99.90;;;;;;5096463;28;20020;-71
2022/11/29 13:51:28;;;;;;;33.10;10.15;;;7.60;99.90;;;;;;5096555;28;20020;-71